Hsc Superjet — IINO — position and weather

sailwx.info

Track history (hours):
 
Tides and Currents Weather Stations Pressure Air Temp Water Temp Dewpoint Dewpoint Depression Visibility Wind Speed Wind Dir Waves Ship Positions

Hsc Superjet

Last reported at 2015-Jul-05 12:32 UTC. Time now 2015-Jul-05 12:49 UTC.
Position N 40°33' E 014°14'.

Length 44 m; draft 1.4 m.

Type: High speed craft. MMSI: 247540000.

Date/timePositionNaut miles runAvg speedWind from/ knotsBaromVisibWave heightAir tempDewpointWater temp
2015-Jul-05 12:32N 40°33' E 014°14'0 0.0
2015-Jul-05 11:28N 40°33' E 014°14'0 0.1
2015-Jul-05 10:33N 40°33' E 014°15'17 8.3
2015-Jul-05 08:33N 40°50' E 014°16'1616.1
2015-Jul-05 07:32N 40°34' E 014°15'1711.4
2015-Jul-05 06:05N 40°50' E 014°15'1221.9
2015-Jul-05 05:33N 40°40' E 014°23'2 2.2
2015-Jul-05 04:26N 40°38' E 014°23'0 0.0
2015-Jul-05 03:29N 40°38' E 014°23'0 0.0
2015-Jul-05 02:31N 40°38' E 014°23'0 0.0
2015-Jul-05 01:14N 40°38' E 014°23'0 0.0
2015-Jul-04 23:30N 40°38' E 014°23'0 0.0
2015-Jul-04 21:24N 40°38' E 014°23'0 0.0
2015-Jul-04 20:30N 40°38' E 014°23'0 0.0
2015-Jul-04 19:13N 40°38' E 014°23'0 0.0
2015-Jul-04 18:31N 40°38' E 014°23'0 0.0
2015-Jul-04 17:33N 40°38' E 014°23'6 2.8
2015-Jul-04 15:30N 40°42' E 014°17'8 8.7
2015-Jul-04 14:32N 40°33' E 014°14'1717.0
2015-Jul-04 13:33N 40°50' E 014°15'0 0.1
2015-Jul-04 12:33N 40°50' E 014°15'1716.7
2015-Jul-04 11:33N 40°33' E 014°14'0 0.0
2015-Jul-04 10:33N 40°33' E 014°14'17 7.9
2015-Jul-04 08:26N 40°50' E 014°16'1717.9
2015-Jul-04 07:30N 40°33' E 014°15'9 4.5
2015-Jul-04 05:32N 40°41' E 014°22'3 0.4
2015-Jul-03 21:33N 40°38' E 014°23'0 0.0
2015-Jul-03 20:33N 40°38' E 014°23'0 0.0
2015-Jul-03 19:32N 40°38' E 014°23'0 0.0
2015-Jul-03 18:33N 40°38' E 014°23'0 0.0
2015-Jul-03 17:31N 40°38' E 014°23'13 6.3
2015-Jul-03 15:27N 40°50' E 014°17'1718.5
2015-Jul-03 14:33N 40°33' E 014°14'0 0.0
2015-Jul-03 13:31N 40°33' E 014°14'0 0.0
2015-Jul-03 12:33N 40°33' E 014°14'0 0.0
2015-Jul-03 11:34N 40°33' E 014°14'5 4.5
2015-Jul-03 10:32N 40°38' E 014°16'12 9.9
2015-Jul-03 09:21N 40°49' E 014°17'1619.5
2015-Jul-03 08:31N 40°33' E 014°14'0 0.2
2015-Jul-03 07:33N 40°33' E 014°15'9 4.6
2015-Jul-03 05:33N 40°41' E 014°22'3 2.9
2015-Jul-03 04:29N 40°38' E 014°23'0 0.0
2015-Jul-03 03:26N 40°38' E 014°23'0 0.0
2015-Jul-03 02:32N 40°38' E 014°23'0 0.0
2015-Jul-03 01:30N 40°38' E 014°23'0 0.0
2015-Jul-03 00:26N 40°38' E 014°23'0 0.0
2015-Jul-02 23:31N 40°38' E 014°23'0 0.0
2015-Jul-02 22:09N 40°38' E 014°23'0 0.0
2015-Jul-02 21:33N 40°38' E 014°23'0 0.0
2015-Jul-02 20:33N 40°38' E 014°23'0 0.0
2015-Jul-02 19:26N 40°38' E 014°23'0 0.0
2015-Jul-02 17:24N 40°38' E 014°23'5 2.8
2015-Jul-02 15:33N 40°40' E 014°17'7 6.6
2015-Jul-02 14:29N 40°34' E 014°15'17 8.6
2015-Jul-02 12:33N 40°50' E 014°15'1714.4
2015-Jul-02 11:23N 40°33' E 014°14'0 0.0
2015-Jul-02 10:33N 40°33' E 014°14'14 6.4
2015-Jul-02 08:19N 40°48' E 014°17'1418.9
2015-Jul-02 07:33N 40°33' E 014°14'10 4.9
2015-Jul-02 05:33N 40°41' E 014°23'3 2.7
2015-Jul-02 04:28N 40°38' E 014°23'0 0.0
2015-Jul-02 03:30N 40°38' E 014°23'0 0.0
2015-Jul-02 02:30N 40°38' E 014°23'0 0.0
2015-Jul-02 01:28N 40°38' E 014°23'0 0.0
2015-Jul-02 00:31N 40°38' E 014°23'0 0.0
2015-Jul-01 23:33N 40°38' E 014°23'0 0.0
2015-Jul-01 22:33N 40°38' E 014°23'0 0.0
2015-Jul-01 21:33N 40°38' E 014°23'0 0.0
2015-Jul-01 20:33N 40°38' E 014°23'0 0.0
2015-Jul-01 19:33N 40°38' E 014°23'0 0.0
2015-Jul-01 18:33N 40°38' E 014°23'0 0.0
2015-Jul-01 17:30N 40°38' E 014°23'13 2.6
2015-Jul-01 12:27N 40°50' E 014°16'0 0.0
2015-Jul-01 11:33N 40°50' E 014°16'0 0.0
2015-Jul-01 10:21N 40°50' E 014°16'0 0.0
2015-Jul-01 09:33N 40°50' E 014°16'10 2.5
2015-Jul-01 05:34N 40°41' E 014°22'3 3.4
2015-Jul-01 04:32N 40°38' E 014°23'0 0.0
2015-Jul-01 03:16N 40°38' E 014°23'0 0.0
2015-Jul-01 02:33N 40°38' E 014°23'0 0.0
2015-Jul-01 01:33N 40°38' E 014°23'0 0.0
2015-Jul-01 00:33N 40°38' E 014°23'0 0.0
2015-Jun-30 23:20N 40°38' E 014°23'0 0.0
2015-Jun-30 22:33N 40°38' E 014°23'0 0.0
2015-Jun-30 21:33N 40°38' E 014°23'0 0.0
2015-Jun-30 20:31N 40°38' E 014°23'0 0.0
2015-Jun-30 19:33N 40°38' E 014°23'0 0.0
2015-Jun-30 18:33N 40°38' E 014°23'0 0.0
2015-Jun-30 17:32N 40°38' E 014°23'5 2.7
2015-Jun-30 15:32N 40°42' E 014°18'9 8.8
2015-Jun-30 14:32N 40°33' E 014°14'15 7.0
2015-Jun-30 12:20N 40°49' E 014°17'1519.5
2015-Jun-30 11:33N 40°33' E 014°14'0 0.0
2015-Jun-30 10:34N 40°33' E 014°14'16 7.3
2015-Jun-30 08:20N 40°50' E 014°17'1620.0
2015-Jun-30 07:32N 40°33' E 014°14'9 4.8
2015-Jun-30 05:33N 40°41' E 014°22'3 1.0
2015-Jun-30 02:23N 40°38' E 014°23'0 0.0
2015-Jun-30 01:33N 40°38' E 014°23'0 0.0
2015-Jun-30 00:33N 40°38' E 014°23'0 0.0
2015-Jun-29 23:32N 40°38' E 014°23'0 0.0
2015-Jun-29 22:32N 40°38' E 014°23'0 0.0
2015-Jun-29 21:22N 40°38' E 014°23'0 0.0
2015-Jun-29 20:32N 40°38' E 014°23'0 0.0
2015-Jun-29 19:31N 40°38' E 014°23'0 0.0
2015-Jun-29 18:32N 40°38' E 014°23'0 0.0
2015-Jun-29 17:21N 40°38' E 014°23'5 3.0
2015-Jun-29 15:33N 40°42' E 014°18'9 8.6
2015-Jun-29 14:33N 40°33' E 014°14'16 2.6
2015-Jun-29 08:18N 40°49' E 014°17'1621.1
2015-Jun-29 07:32N 40°33' E 014°14'9 4.7
2015-Jun-29 05:33N 40°41' E 014°22'3 2.8
2015-Jun-29 04:32N 40°38' E 014°23'0 0.0
2015-Jun-29 03:28N 40°38' E 014°23'0 0.0
2015-Jun-29 01:30N 40°38' E 014°23'0 0.0
2015-Jun-29 00:33N 40°38' E 014°23'0 0.0
2015-Jun-28 23:33N 40°38' E 014°23'0 0.0
2015-Jun-28 22:33N 40°38' E 014°23'0 0.0
2015-Jun-28 21:33N 40°38' E 014°23'0 0.0
2015-Jun-28 20:32N 40°38' E 014°23'0 0.0
2015-Jun-28 19:32N 40°38' E 014°23'0 0.0
2015-Jun-28 18:19N 40°38' E 014°23'0 0.0
2015-Jun-28 17:34N 40°38' E 014°23'1110.5
2015-Jun-28 16:33N 40°48' E 014°17'1414.5
2015-Jun-28 15:33N 40°33' E 014°14'1714.0
2015-Jun-28 14:21N 40°50' E 014°16'1619.6
2015-Jun-28 13:33N 40°34' E 014°15'1 1.3
2015-Jun-28 12:33N 40°34' E 014°14'0 0.4
2015-Jun-28 11:33N 40°35' E 014°13'1 1.4
2015-Jun-28 10:33N 40°34' E 014°15'16 7.5
2015-Jun-28 08:21N 40°50' E 014°17'1720.8
2015-Jun-28 07:33N 40°33' E 014°14'9 4.4
2015-Jun-28 05:30N 40°41' E 014°22'3 3.2
2015-Jun-28 04:33N 40°38' E 014°23'0 0.0
2015-Jun-28 03:33N 40°38' E 014°23'0 0.0
2015-Jun-28 02:33N 40°38' E 014°23'0 0.0
2015-Jun-28 01:29N 40°38' E 014°23'0 0.0
2015-Jun-28 00:32N 40°38' E 014°23'0 0.0
2015-Jun-27 23:32N 40°38' E 014°23'0 0.0
2015-Jun-27 22:33N 40°38' E 014°23'0 0.0
2015-Jun-27 21:32N 40°38' E 014°23'0 0.0
2015-Jun-27 20:30N 40°38' E 014°23'0 0.0
2015-Jun-27 19:33N 40°38' E 014°23'0 0.0
2015-Jun-27 18:24N 40°38' E 014°23'0 0.0
2015-Jun-27 17:30N 40°38' E 014°23'5 2.7
2015-Jun-27 15:33N 40°41' E 014°17'8 8.0
2015-Jun-27 14:33N 40°34' E 014°15'0 0.3
2015-Jun-27 13:28N 40°33' E 014°14'0 0.0
2015-Jun-27 12:30N 40°33' E 014°14'0 0.0
2015-Jun-27 11:32N 40°33' E 014°14'0 0.4
2015-Jun-27 10:34N 40°34' E 014°15'16 7.4
2015-Jun-27 08:25N 40°49' E 014°17'1618.9
2015-Jun-27 07:34N 40°33' E 014°14'8 0.6
2015-Jun-26 18:28N 40°38' E 014°23'0 0.0
2015-Jun-26 17:33N 40°38' E 014°23'11 5.7
2015-Jun-26 15:33N 40°48' E 014°17'1515.2
2015-Jun-26 14:33N 40°33' E 014°14'17 8.0
2015-Jun-26 12:29N 40°50' E 014°17'1717.2
2015-Jun-26 11:32N 40°33' E 014°14'0 0.0
2015-Jun-26 10:29N 40°33' E 014°14'3 3.6
2015-Jun-26 09:32N 40°37' E 014°16'1312.5
2015-Jun-26 08:28N 40°50' E 014°17'1718.2
2015-Jun-26 07:33N 40°33' E 014°14'10 4.8
2015-Jun-26 05:33N 40°41' E 014°23'3 2.9
2015-Jun-26 04:33N 40°38' E 014°23'0 0.0
2015-Jun-26 03:28N 40°38' E 014°23'0 0.0
2015-Jun-26 02:28N 40°38' E 014°23'0 0.0
2015-Jun-26 01:30N 40°38' E 014°23'0 0.0
2015-Jun-26 00:32N 40°38' E 014°23'0 0.0
2015-Jun-25 23:31N 40°38' E 014°23'0 0.0
2015-Jun-25 22:31N 40°38' E 014°23'0 0.0
2015-Jun-25 21:31N 40°38' E 014°23'0 0.0
2015-Jun-25 20:31N 40°38' E 014°23'0 0.0
2015-Jun-25 19:33N 40°38' E 014°23'0 0.0
2015-Jun-25 18:30N 40°38' E 014°23'0 0.0
2015-Jun-25 17:33N 40°38' E 014°23'7 3.4
2015-Jun-25 15:33N 40°43' E 014°17'7 7.4
2015-Jun-25 14:33N 40°36' E 014°18'3 3.1
2015-Jun-25 13:32N 40°33' E 014°14'  
Track history (hours):
 
Tides and Currents Weather Stations Pressure Air Temp Water Temp Dewpoint Dewpoint Depression Visibility Wind Speed Wind Dir Waves Ship Positions

Hsc Superjet

Last reported at 2015-Jul-05 12:32 UTC. Time now 2015-Jul-05 12:49 UTC.
Position N 40°33' E 014°14'.

Length 44 m; draft 1.4 m.

Type: High speed craft. MMSI: 247540000.

Date/timePositionNaut miles runAvg speedWind from/ knotsBaromVisibWave heightAir tempDewpointWater temp
2015-Jul-05 12:32N 40°33' E 014°14'0 0.0
2015-Jul-05 11:28N 40°33' E 014°14'0 0.1
2015-Jul-05 10:33N 40°33' E 014°15'17 8.3
2015-Jul-05 08:33N 40°50' E 014°16'1616.1
2015-Jul-05 07:32N 40°34' E 014°15'1711.4
2015-Jul-05 06:05N 40°50' E 014°15'1221.9
2015-Jul-05 05:33N 40°40' E 014°23'2 2.2
2015-Jul-05 04:26N 40°38' E 014°23'0 0.0
2015-Jul-05 03:29N 40°38' E 014°23'0 0.0
2015-Jul-05 02:31N 40°38' E 014°23'0 0.0
2015-Jul-05 01:14N 40°38' E 014°23'0 0.0
2015-Jul-04 23:30N 40°38' E 014°23'0 0.0
2015-Jul-04 21:24N 40°38' E 014°23'0 0.0
2015-Jul-04 20:30N 40°38' E 014°23'0 0.0
2015-Jul-04 19:13N 40°38' E 014°23'0 0.0
2015-Jul-04 18:31N 40°38' E 014°23'0 0.0
2015-Jul-04 17:33N 40°38' E 014°23'6 2.8
2015-Jul-04 15:30N 40°42' E 014°17'8 8.7
2015-Jul-04 14:32N 40°33' E 014°14'1717.0
2015-Jul-04 13:33N 40°50' E 014°15'0 0.1
2015-Jul-04 12:33N 40°50' E 014°15'1716.7
2015-Jul-04 11:33N 40°33' E 014°14'0 0.0
2015-Jul-04 10:33N 40°33' E 014°14'17 7.9
2015-Jul-04 08:26N 40°50' E 014°16'1717.9
2015-Jul-04 07:30N 40°33' E 014°15'9 4.5
2015-Jul-04 05:32N 40°41' E 014°22'3 0.4
2015-Jul-03 21:33N 40°38' E 014°23'0 0.0
2015-Jul-03 20:33N 40°38' E 014°23'0 0.0
2015-Jul-03 19:32N 40°38' E 014°23'0 0.0
2015-Jul-03 18:33N 40°38' E 014°23'0 0.0
2015-Jul-03 17:31N 40°38' E 014°23'13 6.3
2015-Jul-03 15:27N 40°50' E 014°17'1718.5
2015-Jul-03 14:33N 40°33' E 014°14'0 0.0
2015-Jul-03 13:31N 40°33' E 014°14'0 0.0
2015-Jul-03 12:33N 40°33' E 014°14'0 0.0
2015-Jul-03 11:34N 40°33' E 014°14'5 4.5
2015-Jul-03 10:32N 40°38' E 014°16'12 9.9
2015-Jul-03 09:21N 40°49' E 014°17'1619.5
2015-Jul-03 08:31N 40°33' E 014°14'0 0.2
2015-Jul-03 07:33N 40°33' E 014°15'9 4.6
2015-Jul-03 05:33N 40°41' E 014°22'3 2.9
2015-Jul-03 04:29N 40°38' E 014°23'0 0.0
2015-Jul-03 03:26N 40°38' E 014°23'0 0.0
2015-Jul-03 02:32N 40°38' E 014°23'0 0.0
2015-Jul-03 01:30N 40°38' E 014°23'0 0.0
2015-Jul-03 00:26N 40°38' E 014°23'0 0.0
2015-Jul-02 23:31N 40°38' E 014°23'0 0.0
2015-Jul-02 22:09N 40°38' E 014°23'0 0.0
2015-Jul-02 21:33N 40°38' E 014°23'0 0.0
2015-Jul-02 20:33N 40°38' E 014°23'0 0.0
2015-Jul-02 19:26N 40°38' E 014°23'0 0.0
2015-Jul-02 17:24N 40°38' E 014°23'5 2.8
2015-Jul-02 15:33N 40°40' E 014°17'7 6.6
2015-Jul-02 14:29N 40°34' E 014°15'17 8.6
2015-Jul-02 12:33N 40°50' E 014°15'1714.4
2015-Jul-02 11:23N 40°33' E 014°14'0 0.0
2015-Jul-02 10:33N 40°33' E 014°14'14 6.4
2015-Jul-02 08:19N 40°48' E 014°17'1418.9
2015-Jul-02 07:33N 40°33' E 014°14'10 4.9
2015-Jul-02 05:33N 40°41' E 014°23'3 2.7
2015-Jul-02 04:28N 40°38' E 014°23'0 0.0
2015-Jul-02 03:30N 40°38' E 014°23'0 0.0
2015-Jul-02 02:30N 40°38' E 014°23'0 0.0
2015-Jul-02 01:28N 40°38' E 014°23'0 0.0
2015-Jul-02 00:31N 40°38' E 014°23'0 0.0
2015-Jul-01 23:33N 40°38' E 014°23'0 0.0
2015-Jul-01 22:33N 40°38' E 014°23'0 0.0
2015-Jul-01 21:33N 40°38' E 014°23'0 0.0
2015-Jul-01 20:33N 40°38' E 014°23'0 0.0
2015-Jul-01 19:33N 40°38' E 014°23'0 0.0
2015-Jul-01 18:33N 40°38' E 014°23'0 0.0
2015-Jul-01 17:30N 40°38' E 014°23'13 2.6
2015-Jul-01 12:27N 40°50' E 014°16'0 0.0
2015-Jul-01 11:33N 40°50' E 014°16'0 0.0
2015-Jul-01 10:21N 40°50' E 014°16'0 0.0
2015-Jul-01 09:33N 40°50' E 014°16'10 2.5
2015-Jul-01 05:34N 40°41' E 014°22'3 3.4
2015-Jul-01 04:32N 40°38' E 014°23'0 0.0
2015-Jul-01 03:16N 40°38' E 014°23'0 0.0
2015-Jul-01 02:33N 40°38' E 014°23'0 0.0
2015-Jul-01 01:33N 40°38' E 014°23'0 0.0
2015-Jul-01 00:33N 40°38' E 014°23'0 0.0
2015-Jun-30 23:20N 40°38' E 014°23'0 0.0
2015-Jun-30 22:33N 40°38' E 014°23'0 0.0
2015-Jun-30 21:33N 40°38' E 014°23'0 0.0
2015-Jun-30 20:31N 40°38' E 014°23'0 0.0
2015-Jun-30 19:33N 40°38' E 014°23'0 0.0
2015-Jun-30 18:33N 40°38' E 014°23'0 0.0
2015-Jun-30 17:32N 40°38' E 014°23'5 2.7
2015-Jun-30 15:32N 40°42' E 014°18'9 8.8
2015-Jun-30 14:32N 40°33' E 014°14'15 7.0
2015-Jun-30 12:20N 40°49' E 014°17'1519.5
2015-Jun-30 11:33N 40°33' E 014°14'0 0.0
2015-Jun-30 10:34N 40°33' E 014°14'16 7.3
2015-Jun-30 08:20N 40°50' E 014°17'1620.0
2015-Jun-30 07:32N 40°33' E 014°14'9 4.8
2015-Jun-30 05:33N 40°41' E 014°22'3 1.0
2015-Jun-30 02:23N 40°38' E 014°23'0 0.0
2015-Jun-30 01:33N 40°38' E 014°23'0 0.0
2015-Jun-30 00:33N 40°38' E 014°23'0 0.0
2015-Jun-29 23:32N 40°38' E 014°23'0 0.0
2015-Jun-29 22:32N 40°38' E 014°23'0 0.0
2015-Jun-29 21:22N 40°38' E 014°23'0 0.0
2015-Jun-29 20:32N 40°38' E 014°23'0 0.0
2015-Jun-29 19:31N 40°38' E 014°23'0 0.0
2015-Jun-29 18:32N 40°38' E 014°23'0 0.0
2015-Jun-29 17:21N 40°38' E 014°23'5 3.0
2015-Jun-29 15:33N 40°42' E 014°18'9 8.6
2015-Jun-29 14:33N 40°33' E 014°14'16 2.6
2015-Jun-29 08:18N 40°49' E 014°17'1621.1
2015-Jun-29 07:32N 40°33' E 014°14'9 4.7
2015-Jun-29 05:33N 40°41' E 014°22'3 2.8
2015-Jun-29 04:32N 40°38' E 014°23'0 0.0
2015-Jun-29 03:28N 40°38' E 014°23'0 0.0
2015-Jun-29 01:30N 40°38' E 014°23'0 0.0
2015-Jun-29 00:33N 40°38' E 014°23'0 0.0
2015-Jun-28 23:33N 40°38' E 014°23'0 0.0
2015-Jun-28 22:33N 40°38' E 014°23'0 0.0
2015-Jun-28 21:33N 40°38' E 014°23'0 0.0
2015-Jun-28 20:32N 40°38' E 014°23'0 0.0
2015-Jun-28 19:32N 40°38' E 014°23'0 0.0
2015-Jun-28 18:19N 40°38' E 014°23'0 0.0
2015-Jun-28 17:34N 40°38' E 014°23'1110.5
2015-Jun-28 16:33N 40°48' E 014°17'1414.5
2015-Jun-28 15:33N 40°33' E 014°14'1714.0
2015-Jun-28 14:21N 40°50' E 014°16'1619.6
2015-Jun-28 13:33N 40°34' E 014°15'1 1.3
2015-Jun-28 12:33N 40°34' E 014°14'0 0.4
2015-Jun-28 11:33N 40°35' E 014°13'1 1.4
2015-Jun-28 10:33N 40°34' E 014°15'16 7.5
2015-Jun-28 08:21N 40°50' E 014°17'1720.8
2015-Jun-28 07:33N 40°33' E 014°14'9 4.4
2015-Jun-28 05:30N 40°41' E 014°22'3 3.2
2015-Jun-28 04:33N 40°38' E 014°23'0 0.0
2015-Jun-28 03:33N 40°38' E 014°23'0 0.0
2015-Jun-28 02:33N 40°38' E 014°23'0 0.0
2015-Jun-28 01:29N 40°38' E 014°23'0 0.0
2015-Jun-28 00:32N 40°38' E 014°23'0 0.0
2015-Jun-27 23:32N 40°38' E 014°23'0 0.0
2015-Jun-27 22:33N 40°38' E 014°23'0 0.0
2015-Jun-27 21:32N 40°38' E 014°23'0 0.0
2015-Jun-27 20:30N 40°38' E 014°23'0 0.0
2015-Jun-27 19:33N 40°38' E 014°23'0 0.0
2015-Jun-27 18:24N 40°38' E 014°23'0 0.0
2015-Jun-27 17:30N 40°38' E 014°23'5 2.7
2015-Jun-27 15:33N 40°41' E 014°17'8 8.0
2015-Jun-27 14:33N 40°34' E 014°15'0 0.3
2015-Jun-27 13:28N 40°33' E 014°14'0 0.0
2015-Jun-27 12:30N 40°33' E 014°14'0 0.0
2015-Jun-27 11:32N 40°33' E 014°14'0 0.4
2015-Jun-27 10:34N 40°34' E 014°15'16 7.4
2015-Jun-27 08:25N 40°49' E 014°17'1618.9
2015-Jun-27 07:34N 40°33' E 014°14'8 0.6
2015-Jun-26 18:28N 40°38' E 014°23'0 0.0
2015-Jun-26 17:33N 40°38' E 014°23'11 5.7
2015-Jun-26 15:33N 40°48' E 014°17'1515.2
2015-Jun-26 14:33N 40°33' E 014°14'17 8.0
2015-Jun-26 12:29N 40°50' E 014°17'1717.2
2015-Jun-26 11:32N 40°33' E 014°14'0 0.0
2015-Jun-26 10:29N 40°33' E 014°14'3 3.6
2015-Jun-26 09:32N 40°37' E 014°16'1312.5
2015-Jun-26 08:28N 40°50' E 014°17'1718.2
2015-Jun-26 07:33N 40°33' E 014°14'10 4.8
2015-Jun-26 05:33N 40°41' E 014°23'3 2.9
2015-Jun-26 04:33N 40°38' E 014°23'0 0.0
2015-Jun-26 03:28N 40°38' E 014°23'0 0.0
2015-Jun-26 02:28N 40°38' E 014°23'0 0.0
2015-Jun-26 01:30N 40°38' E 014°23'0 0.0
2015-Jun-26 00:32N 40°38' E 014°23'0 0.0
2015-Jun-25 23:31N 40°38' E 014°23'0 0.0
2015-Jun-25 22:31N 40°38' E 014°23'0 0.0
2015-Jun-25 21:31N 40°38' E 014°23'0 0.0
2015-Jun-25 20:31N 40°38' E 014°23'0 0.0
2015-Jun-25 19:33N 40°38' E 014°23'0 0.0
2015-Jun-25 18:30N 40°38' E 014°23'0 0.0
2015-Jun-25 17:33N 40°38' E 014°23'7 3.4
2015-Jun-25 15:33N 40°43' E 014°17'7 7.4
2015-Jun-25 14:33N 40°36' E 014°18'3 3.1
2015-Jun-25 13:32N 40°33' E 014°14'  

Dump ship's entire track history